Resia Pass

LIVE · Trentino-Alto Adige, 意大利

罗盘
风向 的 风向 160°
风: 5 kt, 2 beaufort

添加一条跑道以查看侧风和逆风信息。

添置 跑道
0 ft 1.000 2.000 3.000 4.000 5.000
Cloud Cloud Cloud Cloud Cloud Cloud Cloud Cloud
OVC 500
METAR LIVE 262055Z 16005KT 2000 -SN BR OVC005 M01/M02 Q1004

METAR Resia Pass - LIVE

Resia Pass是,意大利中的未知。 该机场位于纬度46,83333和经度10,50000。 本场的ICAO机场代码为LIVE。 机场在Milano FIR中。

该航空气象观测是针对Resia Pass在2024年2月26日 21:55, 当地时间进行的。

机场观察

风向为160°,速度为5 kt。

可见度为2 km。

有乌云密布在500 ft的高度。 破损或更高的上限为500 ft。

当前天气为光 雪, 薄雾。 温度为-1 °C,阵风为-6 °C。 露点为-2 °C,相对湿度为93%。 海平面上的气压为1004 hPa (QNH)。

白天

今天,太阳从07:03升起,在17:57降落。 这适用于Resia Pass,世界夏令时可能有所不同。 当地时间与世界标准时间之间的时差为+1 小时。 当前,没有夏令时有效。

公司介绍

我们没有关于这个机场的公司信息。

体会

到Vliegles.nl去找飞行课程,跳伞和其他飞行体验。 浏览页面,了解Resia Pass附近所有可用的活动。 你也可以使用搜索功能来寻找你所在地附近的特定飞行课程、跳伞或其他飞行体验。

乌云

500 ft OVC 乌云密布

温度 & 天气

天气 光 雪
薄雾
温度 -1 °C
露点 -2 °C
相对湿度 93%
风寒 -6 °C
Kp-index 1 (0-9)

白天

日出
07:03 (6:30)
中午
12:30
日落
17:57

小工具

你想在你的网站上有一个关于Resia Pass的当前航空天气(METAR)的小部件吗?

显示HTML代码
?>